x

Half Moon Bay - 24nm Ssw Of San Francisco, Ca (46012) Wave Buoy

8:50pm - Mon 8th Feb 2016 All times are PST. -8 hours from GMT.

  • Sig Wave height 6.6ft
  • Swell Direction
  • Peak Period 16s
  • Average Period 12s
  • Wind
  • Sea Temp 56°f
  • Sea Pressure 1021.4mb
  • Half Moon Bay - 24nm Ssw Of San Francisco, Ca
  • Half Moon Bay - 24nm Ssw Of San Francisco, Ca

More Historic Weather Station data

Upgrade to MSW Pro to gain access to the past 30 days of data for over 8000 Wavebouys and Weather Stations around the globe.

Join Pro

Comparision Forecast

View Surf forecast
   
Mon 02/08 8:50pm 6.5ft 16s 12s  -  2 mph 1021.4mb 56f
7:50pm 7ft 16s 12s  -  2 mph 1021.2mb 56f
6:50pm 6ft 15s 11s 2 4 mph 1021.1mb 56f
5:50pm 8ft 16s 12s 7
mph
1020.7mb 57f
4:50pm 7ft 16s 10s 7 9 mph 1020.8mb 57f
3:50pm 7ft 16s 10s 7 9 mph 1020.7mb 57f
2:50pm 6ft 16s 9s 7 9 mph 1020.8mb 56f
1:50pm 6ft 17s 9s 7 9 mph 1021mb 56f
12:50pm 5.5ft 17s 9s 7
mph
1021.6mb 56f
11:50am 5ft 17s 8s 9
mph
1022.3mb 56f
10:50am 5ft 17s 7s 13 16 mph 1022.7mb 55f
9:50am 4.5ft 12s 7s 13
mph
1022.7mb 55f
8:50am 4.5ft 13s 7s 11 13 mph 1022.3mb 55f
7:50am 4.5ft 13s 7s 7
mph
1022mb 55f
6:50am 4.5ft 13s 6s 9
mph
1021.8mb 55f
5:50am 4.5ft 14s 6s 13 16 mph 1021.4mb 55f
4:50am 5ft 13s 7s 16 18 mph 1021.3mb 56f
3:50am 4.5ft 11s 8s 11 13 mph 1021.4mb 56f
2:50am 5ft 11s 9s 11 13 mph 1021.6mb 56f
1:50am 4.5ft 11s 9s 9 11 mph 1021.5mb 56f
12:50am 5ft 12s 9s 11 13 mph 1021.4mb 55f
Sun 02/07 11:50pm 6ft 12s 9s 11 13 mph 1021.8mb 56f
10:50pm 6ft 11s 9s 9 11 mph 1022.3mb 56f
9:50pm 6ft 12s 9s 9 11 mph 1022.3mb 56f
8:50pm 7ft 13s 9s 9 11 mph 1022.5mb 56f
7:50pm 5.5ft 12s 8s 11 13 mph 1022.5mb 56f
6:50pm 6ft 13s 9s 11 13 mph 1022.5mb 56f
5:50pm 5.5ft 13s 9s 7 9 mph 1022.4mb 56f
4:50pm 5.5ft 12s 8s 11
mph
1022mb 56f
3:50pm 5.5ft 13s 8s 9 11 mph 1022.1mb 56f
2:50pm 6ft 12s 9s 13 16 mph 1021.9mb 56f
1:50pm 5ft 12s 8s 11 13 mph 1022.4mb 56f
12:50pm 6ft 13s 9s 9 11 mph 1023.5mb 56f
11:50am 5ft 13s 8s 9 11 mph 1024.4mb 56f
10:50am 5.5ft 13s 8s 9 11 mph 1025mb 55f
9:50am 6ft 11s 8s 9 11 mph 1025.2mb 55f
8:50am 6.5ft 12s 9s 9 11 mph 1025.3mb 55f
7:50am 7ft 14s 9s 9 11 mph 1025.1mb 55f
6:50am 8ft 14s 9s 11
mph
1024.8mb 55f
5:50am 7ft 12s 9s 9 11 mph 1024.6mb 55f
4:50am 8ft 13s 9s 11 13 mph 1024.8mb 55f
3:50am 7ft 11s 9s 9 11 mph 1025.4mb 55f
2:50am 7ft 13s 9s 9
mph
1025.8mb 55f
1:50am 6ft 12s 9s 9 11 mph 1025.9mb 55f
12:50am 7ft 12s 10s 11
mph
1026.1mb 55f
Sat 02/06 11:50pm 6ft 12s 9s 11 13 mph 1026.6mb 55f
10:50pm 6ft 13s 8s 9 11 mph 1027.1mb 55f
9:50pm 7ft 13s 9s 13 18 mph 1027.1mb 55f
8:50pm 6ft 13s 9s 13 16 mph 1027.2mb 55f
7:50pm 5ft 13s 8s 11 13 mph 1026.7mb 55f
6:50pm 5ft 13s 9s 13 16 mph 1026.4mb 55f
5:50pm 6ft 13s 9s 13 18 mph 1026.3mb 55f
4:50pm 6.5ft 14s 10s 13
mph
1026.5mb 55f
3:50pm 6.5ft 13s 9s 13 16 mph 1027mb 55f
2:50pm 6.5ft 14s 9s 13 16 mph 1027.4mb 55f
1:50pm 7ft 14s 8s 13 16 mph 1027.6mb 55f
12:50pm 7.5ft 11s 8s 16 20 mph 1028.4mb 55f
11:50am 9ft 14s 9s 16 18 mph 1029.4mb 55f
10:50am 10ft 13s 9s 16 20 mph 1029.9mb 55f
9:50am 9.5ft 13s 9s 20 22 mph 1029.7mb 55f
8:50am 9ft 13s 9s 16 18 mph 1029.5mb 55f
7:50am 9.5ft 14s 10s 16 18 mph 1029.5mb 55f
6:50am 10.5ft 14s 10s 16 18 mph 1029.4mb 55f
5:50am 9ft 14s 10s 16 20 mph 1028.8mb 55f
4:50am 9ft 14s 11s 18 20 mph 1028.7mb 55f
3:50am 8ft 14s 11s 11
mph
1028.5mb 55f
2:50am 7.5ft 14s 10s 11 13 mph 1028.5mb 55f
1:50am 7ft 14s 10s 11 13 mph 1028.5mb 55f
12:50am 7ft 15s 10s 16 18 mph 1029.2mb 55f
Fri 02/05 11:50pm 6.5ft 14s 9s 13 18 mph 1029.5mb 55f
10:50pm 7ft 15s 9s 13 16 mph 1029.8mb 55f
9:50pm 6ft 15s 7s 18 22 mph 1030.7mb 56f
8:50pm 7ft 15s 8s 18 20 mph 1029.3mb 56f
7:50pm 8ft 15s 10s 18 22 mph 1029.1mb 56f
6:50pm 7.5ft 14s 10s 16 18 mph 1028.7mb 56f
5:50pm 10ft 15s 11s 11 13 mph 1028.2mb 56f
4:50pm 8ft 16s 10s 11 13 mph 1027.9mb 56f
3:50pm 9ft 16s 10s 11 13 mph 1028.1mb 56f
2:50pm 9.5ft 16s 10s 9 11 mph 1028.5mb 56f
1:50pm 11ft 15s 11s 9 11 mph 1029.1mb 56f
12:50pm 11ft 14s 11s 9 11 mph 1029.8mb 56f
11:50am 11ft 15s 11s 4 9 mph 1030.4mb 56f
10:50am 11ft 15s 11s 2 4 mph 1030.3mb 56f
9:50am 12ft 15s 12s 4 9 mph 1029.8mb 56f
8:50am 10ft 16s 11s 7 11 mph 1029.3mb 56f
7:50am 10ft 15s 11s 11
mph
1029mb 56f
6:50am 10.5ft 16s 12s 13 16 mph 1028.9mb 56f